Time;durP1;ratioP1;P1;durP2;ratioP2;P2;SDS_P1;SDS_P2;PMS_P1;PMS_P2;Temp;Humidity;BMP_temperature;BMP_pressure;BME280_temperature;BME280_humidity;BME280_pressure;Samples;Min_cycle;Max_cycle;Signal;HPM_P1;HPM_P2
2022/06/28 00:02:16;;;;;;;13.35;5.15;;;;;;;13.09;90.40;101888.88;5064815;28;20024;-78
2022/06/28 00:04:42;;;;;;;14.05;5.30;;;;;;;13.03;89.89;101895.53;5069465;28;20028;-78
2022/06/28 00:07:08;;;;;;;18.33;5.40;;;;;;;12.99;89.89;101887.72;5066003;28;20807;-78
2022/06/28 00:09:33;;;;;;;12.57;5.03;;;;;;;12.98;89.99;101883.31;5066839;28;20414;-78
2022/06/28 00:11:59;;;;;;;12.57;4.78;;;;;;;12.94;89.55;101891.63;5066975;28;20033;-78
2022/06/28 00:17:08;;;;;;;15.07;5.30;;;;;;;12.89;90.47;101882.09;5062212;28;20487;-78
2022/06/28 00:19:34;;;;;;;14.65;5.05;;;;;;;12.84;90.36;101885.09;5071053;28;20021;-78
2022/06/28 00:21:59;;;;;;;12.73;5.35;;;;;;;12.74;90.24;101897.47;5061169;28;20033;-78
2022/06/28 00:24:24;;;;;;;13.88;5.32;;;;;;;12.71;89.90;101901.22;5068888;28;20068;-78
2022/06/28 00:26:50;;;;;;;12.80;5.35;;;;;;;12.67;90.39;101896.13;5066956;28;20121;-78
2022/06/28 00:29:15;;;;;;;12.95;4.63;;;;;;;12.66;90.38;101897.09;5068604;28;20024;-78
2022/06/28 00:31:42;;;;;;;13.30;4.80;;;;;;;12.63;90.15;101902.69;5061638;28;20034;-78
2022/06/28 00:34:07;;;;;;;12.40;5.13;;;;;;;12.57;90.51;101902.13;5070406;28;20089;-78
2022/06/28 00:36:33;;;;;;;11.57;4.65;;;;;;;12.53;90.45;101903.31;5065743;28;20028;-78
2022/06/28 00:38:59;;;;;;;14.82;4.97;;;;;;;12.55;91.33;101906.75;5062317;28;20147;-78
2022/06/28 00:41:25;;;;;;;16.70;5.50;;;;;;;12.52;91.38;101896.16;5067842;28;20035;-78
2022/06/28 00:43:51;;;;;;;15.27;4.85;;;;;;;12.53;90.51;101906.00;5067854;28;20032;-78
2022/06/28 00:46:17;;;;;;;14.80;5.60;;;;;;;12.51;91.28;101899.81;5066492;28;20278;-78
2022/06/28 00:48:42;;;;;;;14.43;5.50;;;;;;;12.53;91.64;101902.41;5065085;28;20121;-78
2022/06/28 00:51:08;;;;;;;16.25;5.93;;;;;;;12.54;91.16;101905.00;5092031;28;20048;-78
2022/06/28 00:53:34;;;;;;;15.50;5.15;;;;;;;12.56;91.58;101913.88;5062673;28;20025;-78
2022/06/28 00:55:59;;;;;;;16.65;5.75;;;;;;;12.56;91.42;101911.19;5066784;28;20039;-78
2022/06/28 00:58:25;;;;;;;19.30;5.65;;;;;;;12.59;91.79;101905.59;5058054;28;20507;-78
2022/06/28 01:00:50;;;;;;;15.60;5.65;;;;;;;12.62;91.76;101906.34;5064954;28;20070;-78
2022/06/28 01:03:19;;;;;;;16.85;6.50;;;;;;;12.59;91.80;101912.81;5067220;28;20044;-78
2022/06/28 01:05:45;;;;;;;17.05;6.47;;;;;;;12.61;91.64;101910.00;5066762;28;20031;-78
2022/06/28 01:08:11;;;;;;;16.65;5.70;;;;;;;12.62;91.37;101904.53;5067018;28;20032;-78
2022/06/28 01:10:37;;;;;;;19.92;6.47;;;;;;;12.61;91.54;101904.59;5064672;28;20056;-78
2022/06/28 01:13:04;;;;;;;14.73;5.97;;;;;;;12.64;91.43;101907.13;5066091;28;20043;-78
2022/06/28 01:15:30;;;;;;;15.52;5.85;;;;;;;12.65;91.41;101907.03;5071903;28;20161;-78
2022/06/28 01:17:55;;;;;;;19.75;6.43;;;;;;;12.66;90.99;101908.75;5063989;28;20066;-78
2022/06/28 01:20:22;;;;;;;17.60;6.90;;;;;;;12.66;90.76;101906.03;5065590;28;20131;-78
2022/06/28 01:22:47;;;;;;;14.35;5.47;;;;;;;12.66;91.30;101913.28;5068262;28;20306;-78
2022/06/28 01:25:13;;;;;;;15.13;5.50;;;;;;;12.66;90.71;101915.97;5066103;28;20170;-78
2022/06/28 01:27:39;;;;;;;17.92;6.68;;;;;;;12.71;91.25;101914.72;5068521;28;20392;-78
2022/06/28 01:30:06;;;;;;;13.60;5.13;;;;;;;12.78;90.72;101912.47;5063730;28;20606;-78
2022/06/28 01:32:32;;;;;;;17.15;6.20;;;;;;;12.82;90.37;101903.22;5065600;28;20036;-78
2022/06/28 01:34:59;;;;;;;18.33;6.20;;;;;;;12.81;90.02;101908.69;5066914;28;20054;-78
2022/06/28 01:37:24;;;;;;;12.95;4.95;;;;;;;12.85;90.09;101913.78;5067399;28;20060;-78
2022/06/28 01:39:50;;;;;;;14.05;5.55;;;;;;;12.85;89.63;101919.19;5061213;28;20111;-78
2022/06/28 01:42:15;;;;;;;17.10;5.72;;;;;;;12.79;89.85;101916.91;5065933;28;20107;-78
2022/06/28 01:44:43;;;;;;;17.08;6.10;;;;;;;12.79;89.63;101919.59;5063110;28;20030;-78
2022/06/28 01:47:10;;;;;;;16.90;5.65;;;;;;;12.76;89.73;101925.19;5060339;28;20035;-78
2022/06/28 01:49:35;;;;;;;16.40;6.30;;;;;;;12.69;89.23;101918.47;5072915;28;20027;-78
2022/06/28 01:52:01;;;;;;;14.57;5.72;;;;;;;12.66;89.03;101922.22;5069706;28;20147;-78
2022/06/28 01:54:26;;;;;;;16.83;5.93;;;;;;;12.59;89.41;101921.78;5064930;28;20017;-78
2022/06/28 01:56:52;;;;;;;15.52;5.88;;;;;;;12.57;89.35;101937.16;5068393;28;20032;-78
2022/06/28 01:59:17;;;;;;;14.73;6.03;;;;;;;12.58;89.25;101930.81;5060408;28;20016;-78
2022/06/28 02:01:42;;;;;;;15.63;5.70;;;;;;;12.50;89.58;101932.28;5060101;28;20059;-78
2022/06/28 02:04:26;;;;;;;15.63;5.65;;;;;;;12.48;89.43;101935.06;5065986;28;20090;-78
2022/06/28 02:06:51;;;;;;;13.15;5.68;;;;;;;12.48;89.33;101932.38;5063066;28;20115;-78
2022/06/28 02:09:17;;;;;;;18.58;5.90;;;;;;;12.44;89.30;101936.22;5064892;28;20033;-78
2022/06/28 02:11:42;;;;;;;15.93;5.25;;;;;;;12.44;89.26;101930.84;5062521;28;20110;-78
2022/06/28 02:14:08;;;;;;;18.08;5.78;;;;;;;12.38;89.05;101929.41;5064199;28;20108;-78
2022/06/28 02:16:33;;;;;;;15.98;5.15;;;;;;;12.38;89.11;101939.31;5063917;28;20332;-78
2022/06/28 02:18:58;;;;;;;14.43;5.65;;;;;;;12.36;89.25;101944.81;5062474;28;20375;-78
2022/06/28 02:21:24;;;;;;;13.75;4.95;;;;;;;12.36;89.19;101943.97;5078844;28;20262;-78
2022/06/28 02:23:49;;;;;;;13.48;5.43;;;;;;;12.39;88.67;101952.69;5068293;28;20111;-78
2022/06/28 02:26:15;;;;;;;17.65;5.50;;;;;;;12.37;88.98;101951.94;5064227;28;20016;-78
2022/06/28 02:28:41;;;;;;;15.63;5.70;;;;;;;12.36;88.80;101949.34;5080738;28;20199;-78
2022/06/28 02:31:11;;;;;;;18.05;6.05;;;;;;;12.38;88.19;101952.81;5066984;28;20119;-78
2022/06/28 02:33:37;;;;;;;17.27;5.78;;;;;;;12.34;89.01;101962.03;5067310;28;20424;-78
2022/06/28 02:41:30;;;;;;;16.25;5.63;;;;;;;12.31;88.62;101963.09;5066898;28;21482;-78
2022/06/28 02:43:56;;;;;;;18.23;6.35;;;;;;;12.24;88.53;101965.31;5068354;28;20036;-78
2022/06/28 02:46:22;;;;;;;17.20;5.88;;;;;;;12.22;88.97;101969.94;5068361;28;20029;-78
2022/06/28 02:48:47;;;;;;;19.23;6.50;;;;;;;12.23;88.92;101976.19;5069473;28;20070;-78
2022/06/28 02:51:12;;;;;;;19.05;6.00;;;;;;;12.28;88.27;101978.59;5060875;28;20028;-78
2022/06/28 02:53:37;;;;;;;14.13;5.03;;;;;;;12.22;88.36;101974.47;5069932;28;20440;-78
2022/06/28 02:56:03;;;;;;;13.38;5.50;;;;;;;12.17;88.41;101981.97;5069535;28;20387;-78
2022/06/28 02:58:28;;;;;;;16.67;5.38;;;;;;;12.17;88.46;101976.59;5069605;28;20033;-78
2022/06/28 03:00:54;;;;;;;18.48;5.93;;;;;;;12.20;87.79;101996.13;5069079;28;20603;-78
2022/06/28 03:03:19;;;;;;;15.50;4.80;;;;;;;12.16;88.27;101991.03;5070136;28;20044;-78
2022/06/28 03:05:44;;;;;;;18.58;5.70;;;;;;;12.14;88.32;101998.31;5078099;28;20032;-78
2022/06/28 03:08:10;;;;;;;13.45;4.90;;;;;;;12.09;88.27;101995.91;5064043;28;20380;-78
2022/06/28 03:10:35;;;;;;;18.38;5.38;;;;;;;12.00;88.15;101994.66;5068922;28;20453;-78
2022/06/28 03:13:00;;;;;;;15.27;5.18;;;;;;;11.96;87.82;101994.94;5066906;28;20039;-78
2022/06/28 03:15:26;;;;;;;17.30;5.25;;;;;;;11.95;87.69;101998.56;5073288;28;20029;-78
2022/06/28 03:17:51;;;;;;;15.95;5.20;;;;;;;11.85;87.45;102007.19;5070752;28;20093;-78
2022/06/28 03:20:17;;;;;;;15.65;5.15;;;;;;;11.86;87.88;102000.84;5067581;28;20024;-78
2022/06/28 03:22:42;;;;;;;12.77;4.60;;;;;;;11.84;87.60;102008.13;5064959;28;20119;-78
2022/06/28 03:25:08;;;;;;;13.27;4.90;;;;;;;11.78;88.09;102007.66;5052074;28;20036;-78
2022/06/28 03:27:33;;;;;;;10.70;3.92;;;;;;;11.76;86.91;102007.75;5070956;28;20032;-78
2022/06/28 03:29:59;;;;;;;14.55;4.38;;;;;;;11.79;87.68;102006.72;5066715;28;20040;-78
2022/06/28 03:32:24;;;;;;;9.27;4.10;;;;;;;11.80;88.22;102008.41;5072444;28;20032;-78
2022/06/28 03:34:49;;;;;;;12.75;4.38;;;;;;;11.71;87.82;102013.41;5073867;28;20131;-78
2022/06/28 03:37:15;;;;;;;12.63;4.50;;;;;;;11.74;88.11;102006.97;5064786;28;20472;-78
2022/06/28 03:39:41;;;;;;;13.55;4.65;;;;;;;11.78;87.90;102011.22;5067188;28;20028;-78
2022/06/28 03:42:07;;;;;;;12.70;4.28;;;;;;;11.73;87.80;102018.72;5067695;28;20078;-78
2022/06/28 03:44:32;;;;;;;13.57;4.70;;;;;;;11.76;87.79;102018.53;5068711;28;20056;-78
2022/06/28 03:46:58;;;;;;;12.82;4.55;;;;;;;11.69;88.24;102017.16;5065506;28;20079;-78
2022/06/28 03:49:23;;;;;;;14.18;4.47;;;;;;;11.68;88.18;102018.09;5065771;28;20032;-78
2022/06/28 03:51:49;;;;;;;15.18;4.35;;;;;;;11.67;87.92;102021.75;5069209;28;20039;-78
2022/06/28 03:54:14;;;;;;;12.18;4.53;;;;;;;11.72;88.14;102025.03;5066798;28;20532;-78
2022/06/28 03:56:39;;;;;;;15.57;4.65;;;;;;;11.75;88.63;102016.78;5069530;28;20464;-78
2022/06/28 03:59:04;;;;;;;16.60;5.43;;;;;;;11.70;88.28;102016.19;5066957;28;20025;-78
2022/06/28 04:01:30;;;;;;;12.75;4.47;;;;;;;11.73;88.31;102021.41;5065408;28;20021;-78
2022/06/28 04:03:55;;;;;;;14.65;5.07;;;;;;;11.75;87.84;102016.78;5067401;28;20021;-78
2022/06/28 04:06:20;;;;;;;14.57;4.70;;;;;;;11.78;88.28;102018.44;5065700;28;20032;-78
2022/06/28 04:08:46;;;;;;;15.15;5.38;;;;;;;11.80;88.32;102014.69;5028439;28;1069110;-78
2022/06/28 04:11:14;;;;;;;14.30;4.10;;;;;;;11.79;88.16;102025.56;5084689;28;20029;-78
2022/06/28 04:13:42;;;;;;;11.48;4.43;;;;;;;11.80;88.63;102022.78;5064478;28;20085;-78
2022/06/28 04:16:07;;;;;;;13.68;4.38;;;;;;;11.80;88.52;102025.47;5070610;28;20601;-78
2022/06/28 04:18:33;;;;;;;18.02;5.20;;;;;;;11.82;88.53;102026.22;5069696;28;20116;-78
2022/06/28 04:20:58;;;;;;;13.02;4.35;;;;;;;11.88;88.51;102025.84;5065932;28;20028;-78
2022/06/28 04:23:26;;;;;;;15.73;4.63;;;;;;;11.88;88.43;102025.00;5066522;28;20681;-78
2022/06/28 04:25:52;;;;;;;11.23;3.90;;;;;;;11.96;88.26;102028.16;5064880;28;20083;-78
2022/06/28 04:28:17;;;;;;;10.90;4.13;;;;;;;11.98;88.43;102020.81;5075828;28;20145;-78
2022/06/28 04:30:43;;;;;;;16.40;4.78;;;;;;;12.03;88.13;102025.94;5069392;28;20039;-78
2022/06/28 04:33:08;;;;;;;16.25;4.53;;;;;;;12.07;88.38;102035.56;5067905;28;20032;-78
2022/06/28 04:35:33;;;;;;;14.52;4.38;;;;;;;12.09;87.70;102039.03;5069258;28;20028;-78
2022/06/28 04:37:59;;;;;;;14.70;4.78;;;;;;;12.12;88.12;102025.34;5064947;28;20060;-78
2022/06/28 04:40:24;;;;;;;11.43;4.25;;;;;;;12.19;88.21;102028.56;5064468;28;20748;-78
2022/06/28 04:42:50;;;;;;;14.23;4.75;;;;;;;12.20;88.24;102024.91;5063244;28;20020;-78
2022/06/28 04:45:15;;;;;;;16.48;4.25;;;;;;;12.19;88.14;102023.16;5065912;28;20466;-78
2022/06/28 04:47:42;;;;;;;16.77;4.78;;;;;;;12.22;88.55;102023.84;5072940;28;20123;-78
2022/06/28 04:50:08;;;;;;;15.65;4.88;;;;;;;12.24;88.61;102027.31;5068395;28;20119;-78
2022/06/28 04:52:33;;;;;;;13.50;4.28;;;;;;;12.26;88.65;102029.91;5060851;28;20028;-78
2022/06/28 04:54:58;;;;;;;11.50;4.55;;;;;;;12.32;88.35;102029.53;5064305;28;20048;-78
2022/06/28 04:57:24;;;;;;;13.70;4.28;;;;;;;12.39;88.59;102030.03;5071097;28;20593;-78
2022/06/28 04:59:49;;;;;;;13.50;4.38;;;;;;;12.45;88.16;102034.19;5078011;28;20040;-78
2022/06/28 05:02:14;;;;;;;12.55;4.25;;;;;;;12.48;89.10;102029.44;5062399;28;20024;-78
2022/06/28 05:04:39;;;;;;;11.68;4.03;;;;;;;12.47;88.98;102033.09;5075304;28;20130;-78
2022/06/28 05:07:05;;;;;;;11.45;3.85;;;;;;;12.53;89.11;102027.34;5065550;28;20085;-78
2022/06/28 05:09:30;;;;;;;14.20;4.30;;;;;;;12.57;89.11;102034.25;5064614;28;20036;-78
2022/06/28 05:11:55;;;;;;;18.02;5.07;;;;;;;12.62;89.36;102043.88;5068887;28;20609;-78
2022/06/28 05:14:20;;;;;;;13.98;4.57;;;;;;;12.67;89.62;102039.09;5067138;28;20040;-78
2022/06/28 05:16:46;;;;;;;14.90;4.22;;;;;;;12.76;89.75;102039.34;5067595;28;20028;-78
2022/06/28 05:19:11;;;;;;;15.07;4.22;;;;;;;12.80;88.99;102037.34;5065127;28;20060;-78
2022/06/28 05:21:37;;;;;;;16.33;4.90;;;;;;;12.88;89.15;102044.94;5070703;28;20119;-78
2022/06/28 05:24:03;;;;;;;17.25;4.60;;;;;;;12.98;88.92;102042.53;5063966;28;20488;-78
2022/06/28 05:26:28;;;;;;;18.55;4.50;;;;;;;13.05;88.10;102041.16;5062677;28;20032;-78
2022/06/28 05:28:53;;;;;;;16.38;4.00;;;;;;;13.13;87.49;102040.66;5064728;28;20104;-79
2022/06/28 05:31:19;;;;;;;9.85;3.58;;;;;;;13.19;87.10;102030.34;5065315;28;20119;-79
2022/06/28 05:33:44;;;;;;;14.82;4.40;;;;;;;13.23;86.68;102029.16;5075456;28;20103;-79
2022/06/28 05:36:09;;;;;;;10.45;3.78;;;;;;;13.29;87.29;102031.47;5066956;28;20032;-79
2022/06/28 05:38:34;;;;;;;11.88;4.25;;;;;;;13.34;86.93;102025.78;5065133;28;20025;-78
2022/06/28 05:41:00;;;;;;;15.73;4.25;;;;;;;13.39;86.63;102022.78;5067673;28;20135;-79
2022/06/28 05:43:25;;;;;;;16.92;4.13;;;;;;;13.45;87.06;102022.38;5065461;28;20032;-79
2022/06/28 05:45:50;;;;;;;14.40;4.38;;;;;;;13.49;86.80;102018.50;5069378;28;20016;-79
2022/06/28 05:48:16;;;;;;;17.48;4.28;;;;;;;13.54;87.14;102013.63;5061472;28;20071;-78
2022/06/28 05:50:41;;;;;;;14.75;3.90;;;;;;;13.63;87.43;102013.03;5062740;28;20016;-78
2022/06/28 05:53:06;;;;;;;13.07;4.03;;;;;;;13.68;86.89;102015.41;5063914;28;20093;-78
2022/06/28 05:55:32;;;;;;;16.80;3.80;;;;;;;13.74;86.46;102012.28;5065652;28;20074;-78
2022/06/28 05:57:57;;;;;;;10.88;3.53;;;;;;;13.78;86.31;102010.25;5061455;28;20119;-78
2022/06/28 06:00:22;;;;;;;16.80;4.25;;;;;;;13.86;86.55;102007.03;5062842;28;20028;-79
2022/06/28 06:02:48;;;;;;;13.68;3.90;;;;;;;13.90;85.54;102003.16;5061434;28;20037;-78
2022/06/28 06:05:13;;;;;;;16.23;4.07;;;;;;;13.95;84.57;102001.88;5060581;28;20480;-78
2022/06/28 06:07:39;;;;;;;15.02;4.10;;;;;;;14.01;84.95;102003.25;5068684;28;20054;-78
2022/06/28 06:10:05;;;;;;;18.58;4.28;;;;;;;14.04;85.07;102015.69;5068013;28;20044;-79
2022/06/28 06:12:30;;;;;;;12.57;4.15;;;;;;;14.05;83.74;102018.28;5068032;28;20033;-78
2022/06/28 06:14:55;;;;;;;16.90;4.68;;;;;;;14.14;83.55;102017.66;5070124;28;20028;-78
2022/06/28 06:17:21;;;;;;;13.27;3.75;;;;;;;14.18;82.45;102023.72;5064968;28;20035;-78
2022/06/28 06:19:46;;;;;;;16.60;3.83;;;;;;;14.26;82.93;102020.47;5063464;28;20028;-78
2022/06/28 06:22:11;;;;;;;19.27;4.15;;;;;;;14.30;83.08;102020.13;5066955;28;20032;-78
2022/06/28 06:24:37;;;;;;;12.38;3.25;;;;;;;14.36;82.62;102021.53;5064443;28;20055;-78
2022/06/28 06:27:02;;;;;;;13.45;3.88;;;;;;;14.40;81.03;102022.22;5064054;28;20029;-78
2022/06/28 06:29:28;;;;;;;14.15;3.55;;;;;;;14.45;81.37;102029.03;5063782;28;20036;-78
2022/06/28 06:31:53;;;;;;;13.10;3.83;;;;;;;14.47;80.17;102028.91;5066586;28;20106;-78
2022/06/28 06:34:19;;;;;;;15.05;3.83;;;;;;;14.53;80.91;102033.03;5058891;28;20082;-78
2022/06/28 06:36:46;;;;;;;19.58;4.32;;;;;;;14.56;81.65;102035.50;5061207;28;20028;-78
2022/06/28 06:39:12;;;;;;;15.82;3.72;;;;;;;14.63;81.29;102037.69;5061421;28;20395;-78
2022/06/28 06:41:38;;;;;;;14.02;3.72;;;;;;;14.68;80.55;102035.53;5061483;28;20087;-78
2022/06/28 06:44:03;;;;;;;11.70;3.30;;;;;;;14.77;80.23;102041.25;5065262;28;20368;-78
2022/06/28 06:46:29;;;;;;;19.02;3.92;;;;;;;14.79;78.83;102036.59;5063561;28;20336;-78
2022/06/28 06:48:54;;;;;;;15.57;3.65;;;;;;;14.80;77.12;102038.31;5068561;28;20462;-78
2022/06/28 06:51:20;;;;;;;15.63;3.83;;;;;;;14.89;78.91;102040.38;5082851;28;20471;-78
2022/06/28 06:53:45;;;;;;;15.07;3.50;;;;;;;14.93;77.80;102043.72;5087007;28;20024;-78
2022/06/28 06:56:11;;;;;;;14.50;3.53;;;;;;;14.98;76.47;102038.84;5065777;28;20081;-79
2022/06/28 06:58:36;;;;;;;13.52;3.53;;;;;;;15.00;75.42;102040.44;5066768;28;20032;-78
2022/06/28 07:01:02;;;;;;;10.25;3.30;;;;;;;15.06;75.82;102040.97;5066580;28;20029;-79
2022/06/28 07:03:28;;;;;;;12.35;3.42;;;;;;;15.11;76.61;102047.78;5078612;28;20020;-78
2022/06/28 07:05:53;;;;;;;13.00;3.38;;;;;;;15.13;74.11;102047.66;5075647;28;20479;-78
2022/06/28 07:08:19;;;;;;;12.15;3.35;;;;;;;15.19;75.17;102049.91;5068581;28;20044;-78
2022/06/28 07:10:44;;;;;;;17.90;3.65;;;;;;;15.22;74.68;102052.41;5062296;28;20048;-78
2022/06/28 07:13:09;;;;;;;15.73;3.75;;;;;;;15.28;75.47;102053.78;5080810;28;20035;-78
2022/06/28 07:15:35;;;;;;;15.45;3.60;;;;;;;15.35;75.88;102049.66;5077845;28;20029;-78
2022/06/28 07:18:01;;;;;;;13.75;3.65;;;;;;;15.38;73.72;102046.72;5076175;28;20043;-78
2022/06/28 07:20:27;;;;;;;11.60;3.20;;;;;;;15.40;70.91;102047.44;5076739;28;20032;-78
2022/06/28 07:22:52;;;;;;;14.45;3.58;;;;;;;15.46;73.18;102048.84;5070686;28;20492;-78
2022/06/28 07:25:18;;;;;;;11.73;2.80;;;;;;;15.51;72.92;102046.66;5068338;28;20020;-78
2022/06/28 07:27:43;;;;;;;15.40;3.35;;;;;;;15.57;71.90;102045.34;5071721;28;20099;-78
2022/06/28 07:30:09;;;;;;;15.45;3.95;;;;;;;15.63;73.32;102045.72;5070102;28;20024;-78
2022/06/28 07:32:34;;;;;;;19.73;3.63;;;;;;;15.68;72.15;102043.53;5083188;28;20483;-78
2022/06/28 07:35:00;;;;;;;15.80;3.38;;;;;;;15.73;71.11;102046.75;5063605;28;20024;-78
2022/06/28 07:37:25;;;;;;;14.27;3.20;;;;;;;15.81;72.50;102045.34;5068563;28;20038;-78
2022/06/28 07:39:50;;;;;;;13.38;3.35;;;;;;;15.81;68.58;102048.03;5070642;28;20048;-78
2022/06/28 07:42:16;;;;;;;8.38;2.80;;;;;;;15.85;69.23;102044.97;5067207;28;20093;-78
2022/06/28 07:44:41;;;;;;;15.60;3.60;;;;;;;15.92;71.68;102047.25;5065966;28;20082;-78
2022/06/28 07:47:06;;;;;;;11.85;3.58;;;;;;;15.96;71.24;102041.47;5069491;28;20016;-78
2022/06/28 07:52:34;;;;;;;14.43;3.45;;;;;;;16.07;70.91;102044.19;5067786;28;20113;-78
2022/06/28 07:54:59;;;;;;;7.63;2.60;;;;;;;16.12;67.51;102045.66;5070496;28;20036;-78
2022/06/28 07:57:25;;;;;;;12.98;2.83;;;;;;;16.16;68.57;102044.47;5065043;28;20016;-78
2022/06/28 07:59:50;;;;;;;12.10;2.78;;;;;;;16.17;66.38;102047.03;5072253;28;20460;-78
2022/06/28 08:02:15;;;;;;;5.72;1.98;;;;;;;16.22;65.29;102049.41;5070392;28;20475;-78
2022/06/28 08:04:41;;;;;;;11.88;3.17;;;;;;;16.28;68.86;102046.19;5068101;28;20070;-78
2022/06/28 08:07:06;;;;;;;19.27;3.55;;;;;;;16.35;68.23;102041.16;5079837;28;20047;-79
2022/06/28 08:09:31;;;;;;;16.35;3.75;;;;;;;16.40;66.66;102039.81;5077193;28;20056;-78
2022/06/28 08:11:57;;;;;;;12.80;2.97;;;;;;;16.43;66.51;102046.84;5065809;28;20478;-78
2022/06/28 08:14:22;;;;;;;11.82;3.00;;;;;;;16.51;69.74;102040.81;5067284;28;20085;-78
2022/06/28 08:16:48;;;;;;;12.45;3.40;;;;;;;16.55;65.84;102043.16;5069212;28;20131;-78
2022/06/28 08:19:15;;;;;;;11.93;2.95;;;;;;;16.61;66.62;102044.53;5069545;28;20496;-78
2022/06/28 08:21:40;;;;;;;13.32;3.10;;;;;;;16.65;66.43;102028.84;5085207;28;20206;-78
2022/06/28 08:24:06;;;;;;;11.98;3.17;;;;;;;16.68;64.32;102034.03;5081442;28;20162;-78
2022/06/28 08:26:32;;;;;;;9.48;2.05;;;;;;;16.71;64.44;102031.09;5063796;28;20039;-78
2022/06/28 08:28:57;;;;;;;10.50;2.70;;;;;;;16.76;67.00;102029.72;5065389;28;20142;-78
2022/06/28 08:31:22;;;;;;;5.43;2.15;;;;;;;16.78;63.12;102018.75;5067163;28;20023;-78
2022/06/28 08:33:48;;;;;;;11.10;2.88;;;;;;;16.86;65.78;102023.53;5074734;28;20040;-78
2022/06/28 08:36:13;;;;;;;9.60;3.10;;;;;;;16.88;64.55;102022.47;5067126;28;20025;-78
2022/06/28 08:38:38;;;;;;;7.22;2.20;;;;;;;16.94;66.86;102018.34;5066962;28;20034;-78
2022/06/28 08:41:06;;;;;;;7.00;2.42;;;;;;;16.97;64.14;102020.84;5067112;28;20032;-78
2022/06/28 08:43:31;;;;;;;10.75;2.28;;;;;;;16.96;60.39;102010.97;5069410;28;20062;-78
2022/06/28 08:45:57;;;;;;;9.93;2.85;;;;;;;16.95;59.46;102009.22;5066810;28;20175;-78
2022/06/28 08:48:33;;;;;;;11.25;2.60;;;;;;;16.96;61.75;101997.38;5076271;28;20020;-78
2022/06/28 08:51:00;;;;;;;7.53;1.98;;;;;;;17.00;59.31;102000.69;5076639;28;20032;-78
2022/06/28 08:53:27;;;;;;;6.53;2.08;;;;;;;17.04;58.35;101999.47;5088172;28;20077;-78
2022/06/28 08:55:52;;;;;;;9.45;1.90;;;;;;;17.05;56.35;101996.63;5087877;28;20035;-78
2022/06/28 08:58:18;;;;;;;7.88;2.05;;;;;;;17.14;58.87;101996.84;5067959;28;20028;-78
2022/06/28 09:00:43;;;;;;;10.52;2.47;;;;;;;17.20;62.77;102004.50;5072109;28;20032;-78
2022/06/28 09:03:09;;;;;;;8.20;2.30;;;;;;;17.23;62.18;102002.41;5064304;28;20086;-78
2022/06/28 09:05:34;;;;;;;7.40;1.90;;;;;;;17.31;62.15;102001.75;5070812;28;20036;-78
2022/06/28 09:08:00;;;;;;;8.93;2.10;;;;;;;17.35;59.78;102002.34;5085082;28;20028;-78
2022/06/28 09:10:26;;;;;;;8.60;2.05;;;;;;;17.43;62.88;102003.41;5078965;28;20122;-78
2022/06/28 09:13:07;;;;;;;6.22;1.90;;;;;;;17.49;61.08;101991.19;5060120;28;20111;-78
2022/06/28 09:15:45;;;;;;;10.27;2.25;;;;;;;17.52;60.78;101993.63;5068147;28;20037;-77
2022/06/28 09:18:11;;;;;;;9.77;2.10;;;;;;;17.58;60.45;101986.81;5066024;28;20047;-77
2022/06/28 09:20:38;;;;;;;10.02;2.17;;;;;;;17.62;63.57;101978.25;5066063;28;20479;-77
2022/06/28 09:23:04;;;;;;;6.05;1.95;;;;;;;17.65;63.75;101983.44;5062654;28;20112;-77
2022/06/28 09:25:31;;;;;;;8.57;2.45;;;;;;;17.69;64.15;101981.31;5068863;28;20214;-77
2022/06/28 09:28:01;;;;;;;5.63;1.80;;;;;;;17.72;56.91;101972.06;5065711;28;20145;-77
2022/06/28 09:30:29;;;;;;;6.82;2.25;;;;;;;17.81;60.73;101977.53;5066312;28;20032;-77
2022/06/28 09:32:54;;;;;;;7.35;1.98;;;;;;;17.81;59.93;101982.97;5066228;28;20182;-77
2022/06/28 09:35:22;;;;;;;6.90;2.03;;;;;;;17.87;59.58;101975.31;5065290;28;20107;-77
2022/06/28 09:37:51;;;;;;;6.50;1.80;;;;;;;17.95;61.04;101968.22;5065978;28;20035;-77
2022/06/28 09:40:18;;;;;;;11.73;2.20;;;;;;;17.98;59.04;101972.56;5063860;28;20059;-77
2022/06/28 09:43:04;;;;;;;9.85;2.20;;;;;;;17.99;57.22;101969.69;5064107;28;20036;-77
2022/06/28 09:45:29;;;;;;;7.95;1.95;;;;;;;18.04;59.11;101961.13;5057291;28;20048;-78
2022/06/28 09:47:55;;;;;;;5.80;1.70;;;;;;;18.04;57.37;101972.00;5064955;28;20066;-77
2022/06/28 09:50:21;;;;;;;6.72;2.00;;;;;;;18.10;59.07;101957.00;5071366;28;20230;-77
2022/06/28 09:52:47;;;;;;;3.47;1.65;;;;;;;18.11;57.12;101959.59;5078419;28;20023;-78
2022/06/28 09:55:16;;;;;;;5.78;1.88;;;;;;;18.13;57.17;101959.47;5066868;28;20372;-77
2022/06/28 09:57:47;;;;;;;4.32;1.88;;;;;;;18.13;57.73;101945.84;5067503;28;20505;-77
2022/06/28 10:00:14;;;;;;;5.00;2.08;;;;;;;18.21;58.78;101945.16;5084327;28;20089;-78
2022/06/28 10:02:41;;;;;;;6.72;2.03;;;;;;;18.21;59.73;101943.28;5064213;28;20028;-77
2022/06/28 10:05:07;;;;;;;11.25;2.88;;;;;;;18.27;58.17;101950.06;5068244;28;20021;-79
2022/06/28 10:07:34;;;;;;;8.85;2.45;;;;;;;18.33;58.58;101944.06;5059567;28;20078;-78
2022/06/28 10:10:00;;;;;;;7.35;1.90;;;;;;;18.36;55.64;101940.22;5063840;28;20044;-78
2022/06/28 10:15:20;;;;;;;6.50;2.30;;;;;;;18.52;58.18;101943.28;5086884;28;20506;-78
2022/06/28 10:17:54;;;;;;;8.23;2.63;;;;;;;18.62;58.13;101936.00;5085330;28;20023;-78
2022/06/28 10:20:27;;;;;;;8.68;2.33;;;;;;;18.70;58.42;101943.50;5080431;28;20181;-78
2022/06/28 10:23:24;;;;;;;10.65;2.97;;;;;;;18.74;58.75;101942.22;5080002;28;20025;-78
2022/06/28 10:26:02;;;;;;;7.97;2.38;;;;;;;18.80;59.00;101933.50;5062321;28;20074;-78
2022/06/28 10:28:34;;;;;;;6.57;2.13;;;;;;;18.83;59.14;101930.47;5075261;28;20451;-79
2022/06/28 10:31:21;;;;;;;9.45;2.47;;;;;;;18.90;59.38;101924.50;5077073;28;20111;-78
2022/06/28 10:33:48;;;;;;;10.57;2.67;;;;;;;18.97;57.87;101920.22;5065213;28;20064;-78
2022/06/28 10:36:15;;;;;;;8.93;2.60;;;;;;;19.05;60.79;101920.38;5069102;28;20087;-79
2022/06/28 10:39:08;;;;;;;10.23;2.25;;;;;;;19.08;58.91;101913.75;5084369;28;20020;-79
2022/06/28 10:41:52;;;;;;;6.47;2.05;;;;;;;19.13;59.48;101906.88;5064871;28;20028;-78
2022/06/28 10:44:20;;;;;;;5.28;2.20;;;;;;;19.23;60.73;101914.22;5077687;28;20062;-78
2022/06/28 10:46:52;;;;;;;7.35;2.28;;;;;;;19.24;59.96;101915.91;5085474;28;20035;-78
2022/06/28 10:49:18;;;;;;;7.82;2.38;;;;;;;19.30;58.92;101909.91;5085841;28;20529;-79
2022/06/28 10:52:07;;;;;;;7.43;2.05;;;;;;;19.33;58.35;101904.16;5067364;28;20029;-78
2022/06/28 10:54:32;;;;;;;7.78;2.42;;;;;;;19.33;54.97;101894.13;5070644;28;20028;-78
2022/06/28 10:56:59;;;;;;;6.60;1.92;;;;;;;19.35;55.54;101889.38;5068840;28;20037;-78
2022/06/28 10:59:36;;;;;;;9.18;2.60;;;;;;;19.38;57.20;101896.41;5070964;28;20024;-78
2022/06/28 11:02:02;;;;;;;6.03;2.20;;;;;;;19.44;56.77;101895.81;5067950;28;20032;-78
2022/06/28 11:04:29;;;;;;;5.75;1.85;;;;;;;19.46;56.07;101890.22;5069294;28;20036;-79
2022/06/28 11:06:59;;;;;;;3.20;2.00;;;;;;;19.46;57.45;101904.72;5069652;28;20055;-78
2022/06/28 11:09:58;;;;;;;7.22;2.25;;;;;;;19.57;57.73;101884.63;5067938;28;20068;-78
2022/06/28 11:12:27;;;;;;;3.72;2.13;;;;;;;19.65;59.17;101882.03;5064449;28;20475;-79
2022/06/28 11:14:56;;;;;;;6.10;2.13;;;;;;;19.71;57.75;101883.31;5070192;28;20112;-78
2022/06/28 11:17:33;;;;;;;6.10;1.90;;;;;;;19.77;57.05;101868.22;5068537;28;20074;-78
2022/06/28 11:20:14;;;;;;;8.63;2.42;;;;;;;19.81;58.76;101873.25;5070306;28;20466;-79
2022/06/28 11:22:40;;;;;;;4.63;1.88;;;;;;;19.81;54.37;101873.25;5092010;28;20043;-79
2022/06/28 11:25:09;;;;;;;5.18;2.53;;;;;;;19.85;55.92;101871.94;5092065;28;20040;-78
2022/06/28 11:27:34;;;;;;;7.50;2.20;;;;;;;19.74;55.65;101864.75;5089061;28;20757;-78
2022/06/28 11:30:00;;;;;;;3.92;2.08;;;;;;;19.87;57.17;101861.75;5070703;28;20025;-79
2022/06/28 11:32:35;;;;;;;7.20;2.00;;;;;;;19.92;57.40;101855.00;5066078;28;20120;-79